Terminal Aerodrome Forecast
Issued by NWS

Home | Current Version | Previous Version | Graphics & Text | Print | Product List | Glossary On
Versions: 1 2 3 4 5 6 7 8 9 10 11 12 13 14 15 16 17 18 19 20 21 22 23 24 25 26 27 28 29 30 31 32 33 34 35 36 37
000
FTUS43 KLOT 032216 AAB
TAFORD
TAF AMD
KORD 032216Z 0322/0424 20013G20KT P6SM VCSH BKN080
     FM032300 19012KT P6SM -RA SCT050 OVC070
      TEMPO 0323/0401 VRB08KT 5SM -TSRA BKN045CB
     FM040100 07008KT P6SM SCT080 BKN250
     FM041000 22010KT 5SM -SHRA VCTS SCT020 OVC035CB
     FM041700 02010KT P6SM VCSH BKN015
     FM042000 03010KT P6SM SCT020=

USA.gov is the U.S. government's official web portal to all federal, state and local government web resources and services.